Terminal Aerodrome Forecast
Issued by NWS

Home | Current Version | Previous Version | Text Only | Print | Product List | Glossary On
Versions: 1 2 3 4 5 6 7 8 9 10 11 12
422
FTUS42 TJSJ 211135
TAFJPS
TAF
TJPS 211135Z 2112/2212 00000KT P6SM SKC
     FM211500 18004KT P6SM FEW030
     FM212330 VRB03KT P6SM FEW030
      AMD NOT SKED TIL 220300=

USA.gov is the U.S. government's official web portal to all federal, state and local government web resources and services.